Terminal Aerodrome Forecast
Issued by NWS

Home | Current Version | Previous Version | Text Only | Print | Product List | Glossary On
Versions: 1 2 3 4 5 6 7 8 9 10 11 12
734
FTUS43 KMPX 021739
TAFRNH
TAF
KRNH 021739Z 0218/0318 25004KT P6SM SCT060
     FM030000 VRB03KT P6SM SKC
     FM031200 25007KT P6SM SCT250
     FM031500 26013G20KT P6SM SCT120 BKN200=

USA.gov is the U.S. government's official web portal to all federal, state and local government web resources and services.